General Aviation Weather

Text Reports

Enter one or more of the following location identifiers separated by a space:

Zip Code, Four-Character ICAO or Three-Character IATA airport codes.

METAR - Aviation Routine Weather Report
KHRJ - Erwin, North Carolina
Updated at 5:35 AM GMT on September 03, 2014 (1:35 AM EDT):
METAR KHRJ 030535Z AUTO 21003KT 7SM CLR 24/23 A3002 RMK AO2 T02350232
TAF - Terminal Area Forecast
KHRJ - Erwin, North Carolina
Updated at 5:35 AM GMT on September 03, 2014 (1:35 AM EDT):
No TAF is currently available for this location.
Decoded:
No decoded TAF is available.
PIREP - Pilot Weather Report
KHRJ - Erwin, North Carolina
Updated at 5:35 AM GMT on September 03, 2014 (1:35 AM EDT):
No PIREP is currently available for this location.
AIRMET - Airmens Meteorological Information
KHRJ - Erwin, North Carolina
Updated at 5:35 AM GMT on September 03, 2014 (1:35 AM EDT):
No AIRMET is currently available for this location.
SIGMET - Significant Meteorological Information
KHRJ - Erwin, North Carolina
Updated at 5:35 AM GMT on September 03, 2014 (1:35 AM EDT):
No SIGMET is currently available for this location.
NOTAM - Notice to Airmen
KHRJ - Erwin, North Carolina
Updated at 5:35 AM GMT on September 03, 2014 (1:35 AM EDT):
No NOTAM is currently available for this location.
Forecast Area
KHRJ - Erwin, North Carolina
Updated at 5:35 AM GMT on September 03, 2014 (1:35 AM EDT):
No NOTAM is currently available for this location.
Aviation Weather Maps